Time;durP1;ratioP1;P1;durP2;ratioP2;P2;SDS_P1;SDS_P2;PMS_P1;PMS_P2;Temp;Humidity;BMP_temperature;BMP_pressure;BME280_temperature;BME280_humidity;BME280_pressure;Samples;Min_cycle;Max_cycle;Signal;HPM_P1;HPM_P2
2023/05/23 00:02:00;;;;;;;;;;;15.90;67.90;;;15.12;nan;96078.28;5034631;28;20120;-83
2023/05/23 00:04:29;;;;;;;;;;;15.90;67.70;;;15.10;nan;96075.03;5052146;28;19925;-83
2023/05/23 00:06:57;;;;;;;;;;;15.90;67.70;;;15.09;nan;96069.78;5051176;28;19943;-83
2023/05/23 00:09:25;;;;;;;;;;;15.90;67.80;;;15.08;nan;96069.00;5050576;28;19921;-83
2023/05/23 00:11:53;;;;;;;;;;;15.90;67.80;;;15.07;nan;96067.34;5034946;28;20116;-83
2023/05/23 00:14:22;;;;;;;;;;;15.90;67.90;;;15.07;nan;96069.28;5050108;28;19927;-83
2023/05/23 00:16:50;;;;;;;;;;;15.90;67.50;;;15.04;nan;96074.25;5050777;28;20124;-83
2023/05/23 00:19:18;;;;;;;;;;;15.90;67.60;;;15.03;nan;96071.81;5051220;28;19920;-82
2023/05/23 00:21:48;;;;;;;;;;;15.90;67.60;;;15.01;nan;96066.63;5051932;28;19920;-83
2023/05/23 00:24:17;;;;;;;;;;;15.90;67.80;;;15.01;nan;96069.38;5050797;28;20213;-82
2023/05/23 00:26:45;;;;;;;;;;;15.90;67.80;;;15.02;nan;96067.44;5051284;28;19935;-82
2023/05/23 00:29:15;;;;;;;;;;;15.90;67.50;;;14.99;nan;96063.34;5050309;28;19927;-82
2023/05/23 00:31:45;;;;;;;;;;;15.90;67.60;;;14.99;nan;96070.78;5050747;28;19920;-83
2023/05/23 00:34:13;;;;;;;;;;;15.90;67.60;;;14.96;nan;96069.47;5050790;28;19927;-82
2023/05/23 00:36:42;;;;;;;;;;;15.90;67.60;;;14.98;nan;96067.22;5034325;28;19927;-82
2023/05/23 00:39:17;;;;;;;;;;;15.80;67.60;;;14.97;nan;96070.28;5051164;28;19927;-81
2023/05/23 00:41:46;;;;;;;;;;;15.80;68.50;;;14.96;nan;96065.91;5051747;28;19928;-82
2023/05/23 00:44:14;;;;;;;;;;;15.80;67.40;;;14.94;nan;96068.94;5050661;28;19927;-82
2023/05/23 00:46:43;;;;;;;;;;;15.80;67.30;;;14.94;nan;96059.88;5050531;28;19928;-82
2023/05/23 00:49:12;;;;;;;;;;;15.80;67.50;;;14.91;nan;96063.22;5033178;28;19928;-82
2023/05/23 00:51:42;;;;;;;;;;;15.80;67.20;;;14.89;nan;96069.03;5033818;28;19920;-82
2023/05/23 00:54:10;;;;;;;;;;;15.80;67.30;;;14.87;nan;96063.81;5033779;28;19927;-82
2023/05/23 00:56:40;;;;;;;;;;;15.70;67.30;;;14.87;nan;96065.75;5051675;28;20235;-82
2023/05/23 00:59:08;;;;;;;;;;;15.70;67.30;;;14.84;nan;96072.72;5049835;28;19921;-82
2023/05/23 01:01:36;;;;;;;;;;;15.70;67.20;;;14.83;nan;96065.56;5050334;28;19927;-83
2023/05/23 01:04:05;;;;;;;;;;;15.70;67.20;;;14.83;nan;96075.75;5033826;28;19921;-83
2023/05/23 01:06:33;;;;;;;;;;;15.70;67.50;;;14.81;nan;96061.44;5050039;28;20258;-82
2023/05/23 01:09:01;;;;;;;;;;;15.70;67.30;;;14.80;nan;96070.81;5049646;28;19927;-82
2023/05/23 01:11:32;;;;;;;;;;;15.70;67.00;;;14.78;nan;96078.59;5050172;28;19920;-82
2023/05/23 01:14:05;;;;;;;;;;;15.60;67.00;;;14.74;nan;96072.84;5066571;28;19925;-83
2023/05/23 01:16:41;;;;;;;;;;;15.60;67.10;;;14.72;nan;96075.91;5050419;28;19927;-82
2023/05/23 01:19:17;;;;;;;;;;;15.60;67.40;;;14.72;nan;96073.16;5049507;28;19927;-83
2023/05/23 01:21:45;;;;;;;;;;;15.60;67.50;;;14.73;nan;96071.22;5033426;28;19920;-83
2023/05/23 01:24:23;;;;;;;;;;;15.60;67.50;;;14.72;nan;96070.41;5050020;28;19924;-83
2023/05/23 01:27:01;;;;;;;;;;;15.60;67.60;;;14.73;nan;96072.03;5051019;28;19921;-83
2023/05/23 01:29:32;;;;;;;;;;;15.60;67.60;;;14.74;nan;96072.84;5065782;28;19928;-82
2023/05/23 01:32:02;;;;;;;;;;;15.60;67.60;;;14.75;nan;96079.19;5051194;28;19921;-82
2023/05/23 01:34:30;;;;;;;;;;;15.60;67.50;;;14.73;nan;96074.81;5033219;28;20231;-82
2023/05/23 01:37:00;;;;;;;;;;;15.60;67.20;;;14.72;nan;96067.66;5050091;28;19921;-82
2023/05/23 01:39:28;;;;;;;;;;;15.60;67.10;;;14.71;nan;96077.03;5050256;28;19943;-82
2023/05/23 01:41:56;;;;;;;;;;;15.60;67.00;;;14.70;nan;96074.59;5049981;28;20227;-82
2023/05/23 01:44:24;;;;;;;;;;;15.60;67.00;;;14.69;nan;96072.94;5049817;28;19921;-82
2023/05/23 01:46:53;;;;;;;;;;;15.60;67.10;;;14.68;nan;96074.88;5033304;28;19920;-83
2023/05/23 01:49:21;;;;;;;;;;;15.60;67.20;;;14.67;nan;96067.72;5032406;28;20235;-83
2023/05/23 01:51:49;;;;;;;;;;;15.60;67.20;;;14.67;nan;96067.72;5066437;28;19921;-82
2023/05/23 01:54:19;;;;;;;;;;;15.50;67.30;;;14.67;nan;96072.41;5049828;28;19921;-82
2023/05/23 01:56:48;;;;;;;;;;;15.50;67.30;;;14.66;nan;96071.56;5049640;28;19921;-83
2023/05/23 01:59:15;;;;;;;;;;;15.50;67.20;;;14.65;nan;96069.94;5049074;28;19921;-83
2023/05/23 02:01:45;;;;;;;;;;;15.50;67.00;;;14.64;nan;96076.59;5033029;28;19921;-82
2023/05/23 02:04:15;;;;;;;;;;;15.50;67.10;;;14.63;nan;96065.84;5049489;28;19920;-83
2023/05/23 02:06:43;;;;;;;;;;;15.50;67.30;;;14.63;nan;96069.44;5033016;28;19927;-83
2023/05/23 02:09:14;;;;;;;;;;;15.50;67.20;;;14.62;nan;96062.28;5032131;28;19928;-82
2023/05/23 02:11:42;;;;;;;;;;;15.50;67.20;;;14.61;nan;96068.91;5049592;28;19921;-82
2023/05/23 02:14:11;;;;;;;;;;;15.50;67.30;;;14.61;nan;96068.91;5049376;28;20116;-82
2023/05/23 02:16:39;;;;;;;;;;;15.50;67.30;;;14.60;nan;96077.47;5049470;28;19921;-83
2023/05/23 02:19:07;;;;;;;;;;;15.50;67.20;;;14.60;nan;96078.28;5048749;28;19921;-83
2023/05/23 02:21:37;;;;;;;;;;;15.50;67.20;;;14.59;nan;96076.66;5049468;28;19920;-83
2023/05/23 02:24:05;;;;;;;;;;;15.50;67.00;;;14.57;nan;96074.22;5032649;28;19921;-82
2023/05/23 02:26:33;;;;;;;;;;;15.50;66.90;;;14.56;nan;96074.50;5050483;28;20209;-83
2023/05/23 02:29:01;;;;;;;;;;;15.50;66.90;;;14.56;nan;96072.56;5065357;28;19921;-83
2023/05/23 02:31:31;;;;;;;;;;;15.40;66.70;;;14.55;nan;96072.84;5065865;28;19921;-83
2023/05/23 02:33:59;;;;;;;;;;;15.40;66.80;;;14.54;nan;96079.47;5049328;28;19921;-83
2023/05/23 02:36:26;;;;;;;;;;;15.40;66.90;;;14.52;nan;96079.78;5049127;28;19940;-83
2023/05/23 02:38:57;;;;;;;;;;;15.40;66.90;;;14.52;nan;96079.78;5033498;28;19920;-83
2023/05/23 02:41:25;;;;;;;;;;;15.40;66.80;;;14.52;nan;96087.25;5052360;28;19921;-83
2023/05/23 02:43:54;;;;;;;;;;;15.40;66.70;;;14.50;nan;96092.22;5035206;28;19927;-83
2023/05/23 02:46:22;;;;;;;;;;;15.40;66.60;;;14.50;nan;96094.97;5051585;28;19927;-83
2023/05/23 02:48:50;;;;;;;;;;;15.40;66.60;;;14.48;nan;96095.25;5035261;28;19927;-82
2023/05/23 02:51:18;;;;;;;;;;;15.40;66.70;;;14.48;nan;96095.25;5052007;28;20208;-83
2023/05/23 02:53:46;;;;;;;;;;;15.40;66.80;;;14.48;nan;96097.22;5052479;28;19927;-82
2023/05/23 02:56:16;;;;;;;;;;;15.40;67.00;;;14.48;nan;96108.22;5053400;28;19920;-83
2023/05/23 02:58:44;;;;;;;;;;;15.40;67.00;;;14.48;nan;96109.03;5051706;28;20412;-83
2023/05/23 03:01:12;;;;;;;;;;;15.30;67.00;;;14.48;nan;96102.72;5035529;28;19920;-83
2023/05/23 03:03:40;;;;;;;;;;;15.30;67.00;;;14.48;nan;96110.97;5052238;28;19921;-83
2023/05/23 03:06:13;;;;;;;;;;;15.40;66.90;;;14.48;nan;96108.22;5052067;28;19929;-82
2023/05/23 03:08:42;;;;;;;;;;;15.40;66.70;;;14.48;nan;96108.22;5051706;28;19929;-83
2023/05/23 03:11:09;;;;;;;;;;;15.40;66.70;;;14.48;nan;96108.22;5052880;28;20243;-82
2023/05/23 03:13:39;;;;;;;;;;;15.30;66.70;;;14.47;nan;96114.84;5035291;28;20093;-83
2023/05/23 03:16:07;;;;;;;;;;;15.40;66.50;;;14.47;nan;96112.09;5053067;28;19929;-83
2023/05/23 03:18:35;;;;;;;;;;;15.30;66.50;;;14.45;nan;96103.31;5052410;28;19929;-82
2023/05/23 03:21:03;;;;;;;;;;;15.30;66.50;;;14.43;nan;96107.19;5051620;28;20205;-82
2023/05/23 03:23:31;;;;;;;;;;;15.30;66.40;;;14.43;nan;96107.19;5052119;28;19920;-82
2023/05/23 03:25:59;;;;;;;;;;;15.30;66.60;;;14.43;nan;96107.19;5051822;28;19928;-82
2023/05/23 03:28:28;;;;;;;;;;;15.30;66.50;;;14.45;nan;96106.06;5051396;28;20113;-82
2023/05/23 03:30:58;;;;;;;;;;;15.30;66.50;;;14.43;nan;96109.94;5051730;28;20209;-82
2023/05/23 03:33:26;;;;;;;;;;;15.30;66.50;;;14.45;nan;96111.56;5051762;28;19920;-83
2023/05/23 03:35:55;;;;;;;;;;;15.30;66.60;;;14.45;nan;96112.41;5051530;28;20098;-82
2023/05/23 03:38:23;;;;;;;;;;;15.30;66.50;;;14.47;nan;96112.09;5034640;28;19921;-82
2023/05/23 03:40:51;;;;;;;;;;;15.30;66.50;;;14.46;nan;96115.97;5068024;28;19921;-83
2023/05/23 03:43:19;;;;;;;;;;;15.30;66.50;;;14.46;nan;96114.00;5051694;28;19921;-82
2023/05/23 03:45:47;;;;;;;;;;;15.30;66.50;;;14.46;nan;96115.97;5051391;28;19927;-83
2023/05/23 03:48:19;;;;;;;;;;;15.30;66.80;;;14.46;nan;96126.97;5051218;28;19927;-83
2023/05/23 03:50:48;;;;;;;;;;;15.30;66.60;;;14.46;nan;96122.28;5034119;28;19929;-82
2023/05/23 03:53:17;;;;;;;;;;;15.30;66.70;;;14.45;nan;96128.09;5051566;28;20121;-82
2023/05/23 03:55:45;;;;;;;;;;;15.30;66.50;;;14.44;nan;96124.53;5051270;28;19983;-82
2023/05/23 03:58:13;;;;;;;;;;;15.30;66.50;;;14.45;nan;96122.59;5051273;28;19927;-82
2023/05/23 04:00:44;;;;;;;;;;;15.30;66.60;;;14.46;nan;96121.47;5034323;28;19921;-82
2023/05/23 04:03:16;;;;;;;;;;;15.30;66.70;;;14.45;nan;96119.84;5051318;28;19921;-82
2023/05/23 04:05:45;;;;;;;;;;;15.30;66.40;;;14.44;nan;96119.03;5034616;28;19927;-82
2023/05/23 04:08:14;;;;;;;;;;;15.30;66.60;;;14.43;nan;96118.19;5051077;28;19935;-82
2023/05/23 04:10:42;;;;;;;;;;;15.30;66.60;;;14.45;nan;96122.59;5050600;28;19921;-82
2023/05/23 04:13:10;;;;;;;;;;;15.30;66.90;;;14.45;nan;96119.84;5050967;28;19921;-82
2023/05/23 04:15:39;;;;;;;;;;;15.30;66.80;;;14.46;nan;96119.53;5067768;28;20112;-82
2023/05/23 04:18:10;;;;;;;;;;;15.30;66.90;;;14.48;nan;96120.06;5051115;28;19921;-82
2023/05/23 04:20:38;;;;;;;;;;;15.30;67.10;;;14.50;nan;96122.53;5033928;28;19920;-83
2023/05/23 04:23:08;;;;;;;;;;;15.30;67.20;;;14.53;nan;96119.16;5052153;28;19925;-83
2023/05/23 04:25:39;;;;;;;;;;;15.40;67.00;;;14.55;nan;96109.50;5034448;28;19921;-83
2023/05/23 04:28:16;;;;;;;;;;;15.40;67.30;;;14.58;nan;96116.34;5050834;28;19921;-83
2023/05/23 04:30:44;;;;;;;;;;;15.40;66.80;;;14.60;nan;96116.03;5033890;28;19927;-81
2023/05/23 04:33:13;;;;;;;;;;;15.40;66.40;;;14.62;nan;96120.13;5067477;28;19921;-81
2023/05/23 04:35:42;;;;;;;;;;;15.40;66.50;;;14.65;nan;96119.53;5050845;28;19947;-81
2023/05/23 04:38:12;;;;;;;;;;;15.50;66.50;;;14.68;nan;96118.16;5034159;28;19921;-81
2023/05/23 04:40:40;;;;;;;;;;;15.50;66.10;;;14.70;nan;96122.25;5050396;28;20209;-80
2023/05/23 04:43:28;;;;;;;;;;;15.50;66.20;;;14.73;nan;96121.66;5050593;28;19927;-82
2023/05/23 04:46:09;;;;;;;;;;;15.50;66.40;;;14.78;nan;96123.50;5033937;28;19928;-82
2023/05/23 04:48:49;;;;;;;;;;;15.60;66.30;;;14.82;nan;96130.06;5051220;28;19927;-82
2023/05/23 04:51:18;;;;;;;;;;;15.60;66.50;;;14.86;nan;96124.75;5050549;28;19920;-82
2023/05/23 04:53:56;;;;;;;;;;;15.70;66.70;;;14.91;nan;96129.38;5050704;28;19921;-82
2023/05/23 04:56:27;;;;;;;;;;;15.70;66.20;;;14.96;nan;96134.81;5050567;28;19927;-82
2023/05/23 04:58:56;;;;;;;;;;;15.80;66.20;;;15.00;nan;96130.31;5033321;28;19921;-82
2023/05/23 05:01:24;;;;;;;;;;;15.80;66.20;;;15.04;nan;96134.91;5049563;28;19921;-82
2023/05/23 05:03:53;;;;;;;;;;;15.90;66.20;;;15.11;nan;96139.25;5050552;28;19921;-82
2023/05/23 05:06:21;;;;;;;;;;;15.90;65.90;;;15.14;nan;96133.13;5050212;28;19927;-82
2023/05/23 05:08:49;;;;;;;;;;;15.90;65.40;;;15.16;nan;96134.44;5050035;28;19925;-82
2023/05/23 05:11:18;;;;;;;;;;;16.00;65.20;;;15.19;nan;96133.84;5066760;28;19920;-82
2023/05/23 05:13:46;;;;;;;;;;;16.00;65.20;;;15.22;nan;96126.09;5050126;28;20044;-83
2023/05/23 05:16:15;;;;;;;;;;;16.00;64.60;;;15.23;nan;96136.81;5050257;28;19921;-82
2023/05/23 05:18:43;;;;;;;;;;;16.00;64.80;;;15.25;nan;96126.31;5050024;28;19935;-84
2023/05/23 05:21:11;;;;;;;;;;;16.10;64.90;;;15.27;nan;96128.75;5033669;28;19928;-83
2023/05/23 05:23:39;;;;;;;;;;;16.10;64.80;;;15.27;nan;96135.09;5050150;28;19943;-83
2023/05/23 05:26:09;;;;;;;;;;;16.10;65.20;;;15.30;nan;96131.72;5033476;28;19927;-84
2023/05/23 05:28:39;;;;;;;;;;;16.10;65.10;;;15.33;nan;96127.56;5049412;28;20126;-84
2023/05/23 05:31:08;;;;;;;;;;;16.10;64.80;;;15.35;nan;96122.56;5050954;28;19921;-84
2023/05/23 05:33:37;;;;;;;;;;;16.20;64.90;;;15.38;nan;96130.22;5033399;28;19927;-84
2023/05/23 05:36:14;;;;;;;;;;;16.20;65.10;;;15.40;nan;96127.16;5050063;28;20093;-83
2023/05/23 05:38:42;;;;;;;;;;;16.20;65.00;;;15.43;nan;96129.28;5049326;28;19920;-84
2023/05/23 05:41:11;;;;;;;;;;;16.20;64.90;;;15.47;nan;96127.56;5049995;28;19983;-84
2023/05/23 05:43:45;;;;;;;;;;;16.30;65.00;;;15.50;nan;96136.06;5049995;28;19920;-84
2023/05/23 05:46:13;;;;;;;;;;;16.30;65.00;;;15.55;nan;96128.81;5049984;28;20209;-84
2023/05/23 05:48:41;;;;;;;;;;;16.30;65.00;;;15.61;nan;96135.88;5049055;28;20334;-84
2023/05/23 05:51:12;;;;;;;;;;;16.40;64.80;;;15.64;nan;96126.97;5046426;28;19921;-84
2023/05/23 05:53:42;;;;;;;;;;;16.40;64.50;;;15.70;nan;96127.69;5046215;28;20217;-83
2023/05/23 05:56:10;;;;;;;;;;;16.50;64.30;;;15.74;nan;96128.72;5046423;28;19921;-83
2023/05/23 05:58:40;;;;;;;;;;;16.50;64.50;;;15.79;nan;96129.44;5029229;28;19921;-84
2023/05/23 06:01:16;;;;;;;;;;;16.60;64.40;;;15.83;nan;96126.88;5029983;28;19921;-84
2023/05/23 06:03:44;;;;;;;;;;;16.60;63.80;;;15.89;nan;96124.88;5063085;28;19921;-82
2023/05/23 06:06:12;;;;;;;;;;;16.60;63.90;;;15.92;nan;96127.84;5029782;28;19928;-83
2023/05/23 06:08:41;;;;;;;;;;;16.70;64.20;;;15.97;nan;96128.84;5045381;28;19936;-83
2023/05/23 06:11:13;;;;;;;;;;;16.70;64.30;;;16.01;nan;96121.59;5046336;28;19921;-82
2023/05/23 06:13:41;;;;;;;;;;;16.80;64.30;;;16.04;nan;96126.53;5063988;28;19943;-82
2023/05/23 06:16:09;;;;;;;;;;;16.80;64.20;;;16.05;nan;96123.44;5049888;28;19929;-82
2023/05/23 06:18:39;;;;;;;;;;;16.80;64.40;;;16.08;nan;96133.03;5065590;28;19921;-83
2023/05/23 06:21:07;;;;;;;;;;;16.80;64.20;;;16.10;nan;96128.88;5049332;28;19921;-83
2023/05/23 06:23:37;;;;;;;;;;;16.90;64.20;;;16.13;nan;96127.41;5049376;28;19928;-82
2023/05/23 06:26:09;;;;;;;;;;;16.90;64.10;;;16.14;nan;96134.59;5066256;28;19921;-82
2023/05/23 06:28:38;;;;;;;;;;;17.00;64.20;;;16.17;nan;96133.97;5032292;28;19921;-83
2023/05/23 06:31:09;;;;;;;;;;;16.90;64.30;;;16.19;nan;96137.25;5032555;28;19921;-83
2023/05/23 06:33:39;;;;;;;;;;;16.90;64.10;;;16.21;nan;96129.44;5032566;28;19927;-83
2023/05/23 06:36:07;;;;;;;;;;;17.00;64.10;;;16.23;nan;96127.19;5016561;28;20097;-83
2023/05/23 06:38:35;;;;;;;;;;;17.00;64.20;;;16.25;nan;96124.16;5032130;28;19929;-82
2023/05/23 06:41:05;;;;;;;;;;;17.00;64.30;;;16.30;nan;96120.44;5032816;28;19921;-83
2023/05/23 06:43:35;;;;;;;;;;;17.00;64.40;;;16.33;nan;96119.84;5065731;28;19921;-82
2023/05/23 06:46:23;;;;;;;;;;;17.00;64.30;;;16.37;nan;96109.78;5049235;28;19921;-82
2023/05/23 06:48:52;;;;;;;;;;;17.10;64.40;;;16.41;nan;96114.38;5065139;28;19931;-82
2023/05/23 06:51:20;;;;;;;;;;;17.20;64.30;;;16.45;nan;96122.88;5056521;28;19921;-82
2023/05/23 06:53:49;;;;;;;;;;;17.20;64.20;;;16.48;nan;96116.72;5035689;28;19987;-82
2023/05/23 06:56:17;;;;;;;;;;;17.20;64.00;;;16.51;nan;96116.09;5035945;28;20235;-83
2023/05/23 06:58:54;;;;;;;;;;;17.20;64.10;;;16.54;nan;96114.66;5051692;28;19927;-82
2023/05/23 07:01:22;;;;;;;;;;;17.30;64.20;;;16.57;nan;96114.03;5052232;28;19927;-82
2023/05/23 07:03:53;;;;;;;;;;;17.30;64.00;;;16.60;nan;96112.59;5035683;28;19920;-82
2023/05/23 07:06:22;;;;;;;;;;;17.30;64.00;;;16.63;nan;96106.44;5052374;28;20018;-83
2023/05/23 07:08:50;;;;;;;;;;;17.30;64.10;;;16.65;nan;96110.50;5068118;28;19921;-84
2023/05/23 07:11:18;;;;;;;;;;;17.40;63.80;;;16.66;nan;96106.63;5035708;28;19921;-83
2023/05/23 07:13:52;;;;;;;;;;;17.40;63.90;;;16.68;nan;96100.81;5035546;28;19927;-83
2023/05/23 07:16:28;;;;;;;;;;;17.40;63.80;;;16.69;nan;96099.69;5035616;28;20212;-83
2023/05/23 07:19:05;;;;;;;;;;;17.40;63.70;;;16.71;nan;96094.66;5034752;28;19921;-83
2023/05/23 07:21:37;;;;;;;;;;;17.40;63.60;;;16.72;nan;96099.03;5031992;28;19921;-83
2023/05/23 07:24:06;;;;;;;;;;;17.40;63.60;;;16.71;nan;96091.91;5048100;28;19935;-83
2023/05/23 07:26:34;;;;;;;;;;;17.40;63.60;;;16.73;nan;96089.59;5032017;28;19921;-83
2023/05/23 07:29:02;;;;;;;;;;;17.50;63.30;;;16.73;nan;96084.06;5047777;28;19923;-83
2023/05/23 07:31:31;;;;;;;;;;;17.50;62.90;;;16.74;nan;96080.19;5015577;28;19922;-83
2023/05/23 07:34:00;;;;;;;;;;;17.40;63.00;;;16.73;nan;96081.31;5064889;28;19928;-83
2023/05/23 07:36:36;;;;;;;;;;;17.50;62.90;;;16.72;nan;96082.44;5048619;28;19921;-83
2023/05/23 07:39:08;;;;;;;;;;;17.50;63.10;;;16.72;nan;96074.16;5047678;28;19921;-83
2023/05/23 07:41:36;;;;;;;;;;;17.50;63.10;;;16.73;nan;96075.78;5033004;28;19921;-83
2023/05/23 07:44:04;;;;;;;;;;;17.50;63.20;;;16.73;nan;96070.25;5031627;28;19928;-83
2023/05/23 07:46:32;;;;;;;;;;;17.50;63.20;;;16.75;nan;96073.53;5031879;28;19922;-84
2023/05/23 07:49:00;;;;;;;;;;;17.50;63.30;;;16.78;nan;96075.66;5047697;28;19921;-83
2023/05/23 07:51:28;;;;;;;;;;;17.50;63.30;;;16.78;nan;96081.19;5048260;28;19921;-83
2023/05/23 07:53:58;;;;;;;;;;;17.50;63.40;;;16.81;nan;96068.69;5015063;28;19921;-85
2023/05/23 07:56:26;;;;;;;;;;;17.50;63.40;;;16.82;nan;96073.94;5031643;28;19921;-82
2023/05/23 07:58:54;;;;;;;;;;;17.60;63.60;;;16.82;nan;96071.16;5030763;28;19927;-82
2023/05/23 08:01:23;;;;;;;;;;;17.60;63.60;;;16.83;nan;96067.25;5031574;28;19921;-82
2023/05/23 08:04:05;;;;;;;;;;;17.60;63.60;;;16.85;nan;96058.66;5068098;28;20231;-82
2023/05/23 08:06:41;;;;;;;;;;;17.60;64.50;;;16.85;nan;96059.44;5051405;28;19924;-82
2023/05/23 08:09:12;;;;;;;;;;;17.60;63.80;;;16.86;nan;96072.16;5034089;28;19921;-82
2023/05/23 08:11:45;;;;;;;;;;;17.60;63.80;;;16.87;nan;96068.25;5067914;28;19921;-82
2023/05/23 08:14:15;;;;;;;;;;;17.60;63.60;;;16.88;nan;96066.31;5050919;28;19921;-81
2023/05/23 08:16:54;;;;;;;;;;;17.70;63.50;;;16.87;nan;96071.00;5051366;28;19927;-81
2023/05/23 08:19:25;;;;;;;;;;;17.70;63.60;;;16.88;nan;96075.41;5033572;28;20116;-82
2023/05/23 08:21:53;;;;;;;;;;;17.70;63.30;;;16.86;nan;96072.16;5050950;28;19943;-82
2023/05/23 08:24:22;;;;;;;;;;;17.70;63.30;;;16.85;nan;96066.94;5034286;28;19920;-82
2023/05/23 08:26:51;;;;;;;;;;;17.60;63.20;;;16.84;nan;96068.91;5051111;28;19921;-81
2023/05/23 08:29:19;;;;;;;;;;;17.60;63.30;;;16.83;nan;96061.75;5033543;28;19920;-81
2023/05/23 08:31:48;;;;;;;;;;;17.60;63.20;;;16.81;nan;96064.00;5034313;28;19920;-82
2023/05/23 08:34:16;;;;;;;;;;;17.60;63.20;;;16.80;nan;96062.34;5050691;28;19936;-82
2023/05/23 08:36:44;;;;;;;;;;;17.60;63.40;;;16.79;nan;96066.25;5033333;28;20116;-82
2023/05/23 08:39:17;;;;;;;;;;;17.60;63.50;;;16.79;nan;96062.66;5050049;28;19920;-81
2023/05/23 08:41:53;;;;;;;;;;;17.60;63.50;;;16.79;nan;96066.25;5050807;28;19921;-83
2023/05/23 08:44:21;;;;;;;;;;;17.60;63.30;;;16.80;nan;96062.34;5034166;28;19942;-84
2023/05/23 08:46:53;;;;;;;;;;;17.60;63.20;;;16.80;nan;96062.34;5050788;28;19920;-83
2023/05/23 08:49:44;;;;;;;;;;;17.60;63.10;;;16.82;nan;96059.28;5047851;28;19927;-83
2023/05/23 08:52:12;;;;;;;;;;;17.60;62.90;;;16.83;nan;96067.25;5050410;28;19928;-83
2023/05/23 08:54:43;;;;;;;;;;;17.60;63.10;;;16.83;nan;96061.75;5066713;28;19927;-83
2023/05/23 08:57:13;;;;;;;;;;;17.60;62.30;;;16.86;nan;96054.75;5050584;28;19921;-83
2023/05/23 08:59:46;;;;;;;;;;;17.70;62.80;;;16.86;nan;96055.56;5049736;28;19973;-83
2023/05/23 09:02:14;;;;;;;;;;;17.70;62.90;;;16.87;nan;96056.38;5033940;28;20109;-83
2023/05/23 09:04:42;;;;;;;;;;;17.70;62.50;;;16.88;nan;96056.06;5050349;28;19921;-83
2023/05/23 09:07:22;;;;;;;;;;;17.70;62.90;;;16.90;nan;96061.28;5033827;28;19920;-83
2023/05/23 09:09:52;;;;;;;;;;;17.70;61.80;;;16.92;nan;96055.44;5049590;28;19927;-83
2023/05/23 09:12:22;;;;;;;;;;;17.70;61.50;;;16.93;nan;96055.13;5050595;28;19927;-83
2023/05/23 09:14:51;;;;;;;;;;;17.70;61.90;;;16.93;nan;96055.13;5049983;28;19946;-84
2023/05/23 09:17:21;;;;;;;;;;;17.70;61.40;;;16.96;nan;96050.94;5050371;28;19927;-83
2023/05/23 09:19:49;;;;;;;;;;;17.70;61.10;;;16.96;nan;96048.19;5013111;28;19921;-83
2023/05/23 09:22:38;;;;;;;;;;;17.80;61.20;;;16.94;nan;96051.25;5030583;28;19921;-83
2023/05/23 09:25:14;;;;;;;;;;;17.80;61.00;;;16.96;nan;96050.94;5013730;28;19922;-83
2023/05/23 09:27:45;;;;;;;;;;;17.80;61.20;;;16.96;nan;96042.66;5013916;28;19928;-83
2023/05/23 09:30:14;;;;;;;;;;;17.80;61.60;;;16.96;nan;96048.19;5047149;28;19920;-83
2023/05/23 09:32:43;;;;;;;;;;;17.80;60.90;;;16.94;nan;96040.19;5050125;28;20120;-83
2023/05/23 09:35:12;;;;;;;;;;;17.80;61.30;;;16.93;nan;96046.00;5033160;28;19921;-83
2023/05/23 09:37:44;;;;;;;;;;;17.70;62.40;;;16.90;nan;96033.66;5033498;28;20112;-82
2023/05/23 09:40:14;;;;;;;;;;;17.70;63.20;;;16.87;nan;96035.06;5032621;28;19921;-83
2023/05/23 09:42:56;;;;;;;;;;;17.70;62.90;;;16.85;nan;96037.34;5033545;28;19943;-83
2023/05/23 09:45:29;;;;;;;;;;;17.70;62.40;;;16.84;nan;96043.19;5050939;28;19920;-83
2023/05/23 09:47:57;;;;;;;;;;;17.70;62.20;;;16.84;nan;96034.91;5035288;28;19927;-83
2023/05/23 09:50:26;;;;;;;;;;;17.70;61.10;;;16.84;nan;96040.44;5052593;28;19927;-83
2023/05/23 09:52:54;;;;;;;;;;;17.70;61.20;;;16.83;nan;96036.03;5053500;28;19921;-83
2023/05/23 09:55:22;;;;;;;;;;;17.70;60.10;;;16.85;nan;96031.00;5052959;28;19928;-83
2023/05/23 09:57:56;;;;;;;;;;;17.70;59.50;;;16.84;nan;96032.97;5053315;28;19927;-83
2023/05/23 10:00:24;;;;;;;;;;;17.70;60.00;;;16.85;nan;96025.47;5052333;28;19920;-83
2023/05/23 10:02:55;;;;;;;;;;;17.70;60.40;;;16.84;nan;96024.66;5054446;28;19920;-82
2023/05/23 10:05:31;;;;;;;;;;;17.70;59.40;;;16.85;nan;96020.75;5054136;28;19928;-82
2023/05/23 10:07:59;;;;;;;;;;;17.70;59.30;;;16.85;nan;96017.19;5036551;28;19921;-83
2023/05/23 10:10:28;;;;;;;;;;;17.70;60.40;;;16.85;nan;96015.22;5053359;28;19927;-83
2023/05/23 10:12:58;;;;;;;;;;;17.70;59.20;;;16.86;nan;96016.84;5052919;28;19943;-83
2023/05/23 10:15:26;;;;;;;;;;;17.70;58.90;;;16.86;nan;96016.03;5052810;28;19927;-83
2023/05/23 10:18:01;;;;;;;;;;;17.70;59.10;;;16.84;nan;96013.59;5036392;28;19927;-83
2023/05/23 10:20:31;;;;;;;;;;;17.70;60.40;;;16.85;nan;96008.88;5053262;28;20128;-83
2023/05/23 10:23:00;;;;;;;;;;;17.70;61.40;;;16.84;nan;96012.78;5036420;28;19927;-82
2023/05/23 10:25:28;;;;;;;;;;;17.70;61.70;;;16.82;nan;96007.56;5052834;28;19920;-84
2023/05/23 10:27:58;;;;;;;;;;;17.70;62.00;;;16.80;nan;96001.53;5054037;28;20217;-83
2023/05/23 10:30:26;;;;;;;;;;;17.60;62.00;;;16.79;nan;95994.38;5053104;28;19931;-83
2023/05/23 10:32:54;;;;;;;;;;;17.60;62.30;;;16.77;nan;95991.09;5052905;28;20116;-83
2023/05/23 10:35:25;;;;;;;;;;;17.60;62.80;;;16.74;nan;95988.97;5053582;28;19921;-83
2023/05/23 10:38:01;;;;;;;;;;;17.60;62.40;;;16.74;nan;95980.69;5052742;28;19920;-83
2023/05/23 10:40:34;;;;;;;;;;;17.60;63.00;;;16.73;nan;95987.34;5051831;28;19928;-84
2023/05/23 10:43:14;;;;;;;;;;;17.50;62.50;;;16.71;nan;95982.13;5035988;28;19921;-83
2023/05/23 10:45:42;;;;;;;;;;;17.50;62.60;;;16.72;nan;95982.94;5052316;28;19927;-84
2023/05/23 10:48:24;;;;;;;;;;;17.50;61.20;;;16.72;nan;95977.41;5052826;28;19925;-83
2023/05/23 10:51:02;;;;;;;;;;;17.50;62.60;;;16.72;nan;95989.28;5085897;28;19921;-83
2023/05/23 10:53:31;;;;;;;;;;;17.50;63.30;;;16.71;nan;95981.31;5035965;28;19925;-83
2023/05/23 10:55:59;;;;;;;;;;;17.50;62.10;;;16.71;nan;95970.28;5052170;28;20116;-83
2023/05/23 10:58:30;;;;;;;;;;;17.50;61.00;;;16.72;nan;95972.72;5051408;28;19927;-83
2023/05/23 11:01:01;;;;;;;;;;;17.50;61.60;;;16.73;nan;95962.47;5052949;28;19921;-83
2023/05/23 11:03:36;;;;;;;;;;;17.50;62.30;;;16.74;nan;95974.34;5035946;28;20125;-84
2023/05/23 11:06:05;;;;;;;;;;;17.50;61.40;;;16.72;nan;95969.13;5085635;28;19928;-83
2023/05/23 11:08:41;;;;;;;;;;;17.50;62.40;;;16.72;nan;95967.19;5051715;28;20217;-83
2023/05/23 11:11:09;;;;;;;;;;;17.50;61.80;;;16.72;nan;95966.34;5053260;28;20209;-83
2023/05/23 11:13:59;;;;;;;;;;;17.50;61.90;;;16.73;nan;95965.22;5068821;28;19920;-84
2023/05/23 11:16:27;;;;;;;;;;;17.50;62.40;;;16.73;nan;95967.97;5052135;28;20227;-83
2023/05/23 11:19:24;;;;;;;;;;;17.50;61.60;;;16.73;nan;95967.97;5068285;28;19920;-83
2023/05/23 11:21:54;;;;;;;;;;;17.50;62.20;;;16.75;nan;95962.16;5035144;28;19927;-83
2023/05/23 11:24:22;;;;;;;;;;;17.50;61.40;;;16.75;nan;95960.19;5035565;28;19927;-83
2023/05/23 11:26:58;;;;;;;;;;;17.50;60.80;;;16.76;nan;95956.31;5051658;28;19927;-83
2023/05/23 11:29:28;;;;;;;;;;;17.60;61.50;;;16.78;nan;95959.56;5051445;28;19921;-83
2023/05/23 11:31:56;;;;;;;;;;;17.60;60.00;;;16.80;nan;95957.31;5052751;28;19927;-83
2023/05/23 11:34:25;;;;;;;;;;;17.60;60.00;;;16.83;nan;95953.09;5035254;28;19927;-83
2023/05/23 11:36:55;;;;;;;;;;;17.60;59.10;;;16.84;nan;95952.78;5051581;28;19920;-83
2023/05/23 11:39:22;;;;;;;;;;;17.60;59.20;;;16.86;nan;95947.72;5052368;28;19921;-83
2023/05/23 11:42:01;;;;;;;;;;;17.70;59.50;;;16.87;nan;95954.88;5052595;28;20098;-83
2023/05/23 11:44:30;;;;;;;;;;;17.70;58.90;;;16.88;nan;95953.75;5068498;28;19921;-83
2023/05/23 11:47:02;;;;;;;;;;;17.70;60.10;;;16.88;nan;95948.22;5051318;28;19921;-83
2023/05/23 11:49:30;;;;;;;;;;;17.70;59.90;;;16.88;nan;95948.22;5067496;28;20121;-83